Time;durP1;ratioP1;P1;durP2;ratioP2;P2;SDS_P1;SDS_P2;PMS_P1;PMS_P2;Temp;Humidity;BMP_temperature;BMP_pressure;BME280_temperature;BME280_humidity;BME280_pressure;Samples;Min_cycle;Max_cycle;Signal;HPM_P1;HPM_P2
2021/05/16 00:02:29;;;;;;;12.07;10.60;;;;;;;14.56;65.47;98056.54;261045;1102;114794;-66
2021/05/16 00:07:36;;;;;;;15.00;9.83;;;;;;;14.59;65.71;98050.90;261213;1101;115188;-65
2021/05/16 00:12:47;;;;;;;12.80;9.28;;;;;;;14.62;65.49;98049.77;261058;1101;115140;-66
2021/05/16 00:18:01;;;;;;;13.90;9.93;;;;;;;14.62;66.02;98049.77;260883;1099;115717;-65
2021/05/16 00:23:11;;;;;;;15.00;10.65;;;;;;;14.60;65.71;98041.02;261140;1104;115514;-65
2021/05/16 00:28:20;;;;;;;19.33;10.73;;;;;;;14.51;66.01;98037.40;261209;1099;115407;-64
2021/05/16 00:33:34;;;;;;;11.93;9.98;;;;;;;14.42;65.88;98033.71;261334;1102;114757;-66
2021/05/16 00:38:44;;;;;;;11.10;8.83;;;;;;;14.35;66.13;98037.11;261059;1099;115322;-66
2021/05/16 00:44:02;;;;;;;10.90;8.00;;;;;;;14.30;65.68;98034.01;261270;1101;114502;-65
2021/05/16 00:49:13;;;;;;;10.80;8.87;;;;;;;14.31;66.28;98030.37;261067;1103;115150;-66
2021/05/16 00:54:27;;;;;;;;;;;;;;;14.36;66.73;98034.28;261068;1102;114923;-63
2021/05/16 00:59:39;;;;;;;11.48;9.43;;;;;;;14.31;66.44;98033.88;261136;1099;103286;-64
2021/05/16 01:04:51;;;;;;;14.20;9.70;;;;;;;14.26;66.07;98017.39;261103;1104;114764;-63
2021/05/16 01:09:55;;;;;;;16.43;9.05;;;;;;;14.23;66.40;98015.00;263188;1097;114650;-65
2021/05/16 01:15:03;;;;;;;13.30;8.90;;;;;;;14.27;66.83;98007.56;263161;1104;115093;-64
2021/05/16 01:20:13;;;;;;;12.90;9.08;;;;;;;14.28;66.14;97998.53;263144;1099;114625;-67
2021/05/16 01:25:22;;;;;;;11.58;8.33;;;;;;;14.27;66.44;97997.70;263224;1098;114266;-64
2021/05/16 01:30:27;;;;;;;11.00;8.45;;;;;;;14.22;66.73;97997.27;263195;1099;114442;-64
2021/05/16 01:35:31;;;;;;;;;;;;;;;14.15;66.26;97994.31;262826;1104;115176;-65
2021/05/16 01:40:38;;;;;;;11.30;9.10;;;;;;;14.08;66.16;98000.39;263207;1098;101821;-66
2021/05/16 01:45:49;;;;;;;9.28;8.28;;;;;;;14.02;66.69;98003.63;262802;1102;114519;-64
2021/05/16 01:50:53;;;;;;;;;;;;;;;14.01;66.92;98001.95;263078;1100;114914;-64
2021/05/16 01:55:57;;;;;;;10.53;8.65;;;;;;;14.04;66.43;98005.19;263253;1102;101555;-64
2021/05/16 02:01:04;;;;;;;11.85;8.73;;;;;;;14.03;66.60;98011.53;263048;1098;117637;-64
2021/05/16 02:06:20;;;;;;;11.95;8.93;;;;;;;14.00;66.76;98005.63;262797;1103;115018;-64
2021/05/16 02:14:44;;;;;;;15.85;8.95;;;;;;;13.91;66.76;98005.47;262218;1091;101702;-64
2021/05/16 02:20:20;;;;;;;12.13;8.73;;;;;;;13.84;67.10;98003.52;261669;1102;115228;-66
2021/05/16 02:25:38;;;;;;;11.53;7.78;;;;;;;13.83;66.62;98002.67;261469;1099;115329;-67
2021/05/16 02:31:24;;;;;;;11.25;8.10;;;;;;;13.85;66.59;98002.52;261467;1102;115144;-66
2021/05/16 02:36:38;;;;;;;12.60;8.63;;;;;;;13.82;66.98;97987.59;261494;1099;114543;-65
2021/05/16 02:41:46;;;;;;;12.00;9.03;;;;;;;13.80;66.71;97976.20;261923;1099;115136;-67
2021/05/16 02:47:06;;;;;;;10.55;8.45;;;;;;;13.78;67.39;97986.19;261563;1102;114563;-65
2021/05/16 02:52:12;;;;;;;11.73;8.28;;;;;;;13.77;66.90;97991.69;261293;1103;115607;-65
2021/05/16 02:57:22;;;;;;;11.63;8.07;;;;;;;13.77;67.31;98002.39;261097;1103;115178;-65
2021/05/16 03:02:31;;;;;;;10.57;7.63;;;;;;;13.82;67.73;98000.13;261506;1098;114992;-66
2021/05/16 03:07:40;;;;;;;10.77;8.87;;;;;;;13.82;67.77;97997.45;261567;1099;114864;-68
2021/05/16 03:12:50;;;;;;;15.87;9.10;;;;;;;13.83;68.05;97989.30;261351;1102;114652;-65
2021/05/16 03:18:00;;;;;;;11.10;9.10;;;;;;;13.81;67.47;97991.26;261291;1100;114876;-66
2021/05/16 03:23:15;;;;;;;11.57;8.00;;;;;;;13.80;67.37;97989.58;261299;1101;115061;-67
2021/05/16 03:28:24;;;;;;;9.27;8.00;;;;;;;13.83;67.49;97981.28;261452;1099;115217;-67
2021/05/16 03:33:30;;;;;;;10.33;7.93;;;;;;;13.88;67.34;97992.38;261449;1103;115625;-65
2021/05/16 03:38:40;;;;;;;10.33;8.65;;;;;;;13.93;68.04;97984.78;261231;1099;115335;-63
2021/05/16 03:43:54;;;;;;;10.97;8.53;;;;;;;13.94;67.23;97991.81;261430;1102;116340;-63
2021/05/16 03:49:16;;;;;;;12.03;8.97;;;;;;;13.92;68.24;97983.08;261356;1099;115534;-65
2021/05/16 03:54:36;;;;;;;8.78;7.35;;;;;;;13.94;68.14;97988.30;261210;1103;115518;-64
2021/05/16 03:59:51;;;;;;;11.50;7.60;;;;;;;13.96;68.22;97987.19;261174;1100;115021;-66
2021/05/16 04:05:07;;;;;;;10.87;8.17;;;;;;;14.04;68.21;97993.65;261520;1102;115113;-65
2021/05/16 04:10:18;;;;;;;11.03;8.40;;;;;;;14.10;67.84;97990.41;261465;1103;114759;-66
2021/05/16 04:15:23;;;;;;;15.80;8.87;;;;;;;14.10;68.03;97993.92;261531;1103;117385;-64
2021/05/16 04:20:31;;;;;;;12.00;9.30;;;;;;;14.14;67.95;97991.80;261151;1099;114785;-65
2021/05/16 04:25:45;;;;;;;11.67;8.57;;;;;;;14.14;68.06;97981.94;261497;1103;116430;-66
2021/05/16 04:30:56;;;;;;;9.27;7.60;;;;;;;14.24;68.12;97978.41;261472;1098;115362;-66
2021/05/16 04:36:06;;;;;;;11.87;8.50;;;;;;;14.31;68.47;97968.81;261256;1100;114427;-66
2021/05/16 04:41:21;;;;;;;14.60;9.57;;;;;;;14.36;67.96;97980.75;261401;1101;116151;-66
2021/05/16 04:46:32;;;;;;;14.95;9.65;;;;;;;14.40;67.87;97967.91;261500;1102;115039;-65
2021/05/16 04:51:53;;;;;;;16.18;12.95;;;;;;;14.41;68.12;97962.44;261306;1104;115417;-65
2021/05/16 04:57:05;;;;;;;19.37;12.87;;;;;;;14.39;68.06;97969.75;261319;1103;114432;-66
2021/05/16 05:02:21;;;;;;;14.00;11.17;;;;;;;14.41;67.70;97956.23;261382;1099;115470;-67
2021/05/16 05:07:39;;;;;;;15.77;10.93;;;;;;;14.53;67.89;97959.59;261296;1103;115938;-64
2021/05/16 05:12:57;;;;;;;;;;;;;;;14.65;67.74;97956.59;261658;1104;116261;-62
2021/05/16 05:18:21;;;;;;;21.05;10.95;;;;;;;14.75;68.37;97958.40;261955;1101;103143;-65
2021/05/16 05:23:39;;;;;;;13.68;10.45;;;;;;;14.81;68.31;97968.50;261819;1104;115885;-65
2021/05/16 05:29:00;;;;;;;;;;;;;;;14.86;68.07;97961.71;261801;1104;116017;-66
2021/05/16 05:34:19;;;;;;;11.30;8.63;;;;;;;14.85;67.58;97954.67;261696;1100;102955;-67
2021/05/16 05:39:48;;;;;;;12.67;7.20;;;;;;;14.88;67.23;97957.06;261794;1104;117111;-65
2021/05/16 05:45:09;;;;;;;10.43;6.58;;;;;;;14.94;67.52;97958.28;261551;1099;114885;-66
2021/05/16 05:50:23;;;;;;;7.47;5.27;;;;;;;15.02;67.72;97970.95;261605;1099;115538;-66
2021/05/16 05:55:39;;;;;;;10.80;5.97;;;;;;;15.11;67.31;97973.58;261490;1100;115703;-65
2021/05/16 06:00:56;;;;;;;7.03;4.40;;;;;;;15.19;67.39;97971.98;261736;1103;115636;-66
2021/05/16 06:06:08;;;;;;;3.93;3.53;;;;;;;15.22;66.67;97974.37;261751;1104;116549;-67
2021/05/16 06:11:26;;;;;;;5.95;3.38;;;;;;;15.26;66.53;97970.39;261520;1099;115446;-66
2021/05/16 06:16:46;;;;;;;5.43;4.17;;;;;;;15.30;66.22;97972.59;261677;1102;115454;-66
2021/05/16 06:22:00;;;;;;;6.20;4.05;;;;;;;15.37;66.17;97972.84;261654;1099;115668;-67
2021/05/16 06:27:13;;;;;;;7.93;4.10;;;;;;;15.47;66.00;97970.94;261215;1099;116977;-66
2021/05/16 06:32:25;;;;;;;9.98;4.75;;;;;;;15.63;66.27;97980.98;261497;1099;114600;-67
2021/05/16 06:37:40;;;;;;;8.18;4.53;;;;;;;15.69;65.70;97975.05;261834;1101;115599;-64
2021/05/16 06:43:05;;;;;;;8.73;4.60;;;;;;;15.72;65.77;97979.23;261761;1102;114587;-65
2021/05/16 06:48:30;;;;;;;7.80;5.20;;;;;;;15.75;65.36;97985.14;261616;1098;114984;-65
2021/05/16 06:53:43;;;;;;;9.37;4.97;;;;;;;15.76;65.30;97976.11;261607;1101;114960;-64
2021/05/16 06:59:08;;;;;;;8.13;4.93;;;;;;;15.75;65.28;97985.14;261453;1099;115741;-64
2021/05/16 07:04:23;;;;;;;6.83;5.00;;;;;;;15.77;65.15;97976.95;261393;1098;114855;-65
2021/05/16 07:09:48;;;;;;;7.20;4.20;;;;;;;15.86;65.76;97978.69;261564;1103;115529;-64
2021/05/16 07:15:03;;;;;;;8.77;5.20;;;;;;;15.98;65.38;97973.94;261563;1102;115799;-63
2021/05/16 07:20:19;;;;;;;7.30;4.63;;;;;;;16.08;65.55;97969.32;261613;1098;115393;-63
2021/05/16 07:25:29;;;;;;;4.68;2.65;;;;;;;16.16;65.25;97966.69;261393;1101;114999;-63
2021/05/16 07:30:45;;;;;;;5.55;2.65;;;;;;;16.20;64.71;97976.14;261400;1099;114416;-64
2021/05/16 07:36:00;;;;;;;4.03;2.10;;;;;;;16.21;64.63;97967.07;261548;1104;114334;-65
2021/05/16 07:41:13;;;;;;;2.17;1.63;;;;;;;16.20;64.13;97968.08;261607;1101;114483;-67
2021/05/16 07:46:17;;;;;;;2.00;1.63;;;;;;;16.23;63.73;97961.53;261556;1101;114596;-63
2021/05/16 07:55:09;;;;;;;2.28;1.40;;;;;;;16.28;63.27;97960.07;262018;1096;103318;-65
2021/05/16 08:00:31;;;;;;;1.70;1.13;;;;;;;16.35;63.29;97976.39;261665;1102;207551;-63
2021/05/16 08:05:45;;;;;;;3.43;1.25;;;;;;;16.45;63.04;97970.92;261723;1099;114421;-65
2021/05/16 08:10:59;;;;;;;1.80;1.10;;;;;;;16.52;62.43;97978.18;261481;1100;114230;-65
2021/05/16 08:16:15;;;;;;;3.17;1.33;;;;;;;16.56;62.10;97978.70;261375;1102;114680;-64
2021/05/16 08:21:20;;;;;;;2.90;1.20;;;;;;;16.64;62.21;97977.90;261726;1101;115777;-65
2021/05/16 08:26:58;;;;;;;3.03;1.00;;;;;;;16.70;62.17;97994.22;261556;1099;115140;-64
2021/05/16 08:32:25;;;;;;;3.18;1.10;;;;;;;16.74;61.84;97987.55;261319;1105;114134;-64
2021/05/16 08:37:44;;;;;;;2.78;0.90;;;;;;;16.77;61.47;97987.23;261226;1100;114211;-65
2021/05/16 08:43:04;;;;;;;2.50;0.85;;;;;;;16.82;61.18;98002.90;261448;1104;114900;-64
2021/05/16 08:48:29;;;;;;;1.83;0.90;;;;;;;16.82;60.76;98004.75;261634;1097;115695;-66
2021/05/16 09:14:38;;;;;;;5.08;3.30;;;;;;;16.42;60.09;98044.58;261783;1093;102988;-67
2021/05/16 09:19:47;;;;;;;8.30;3.03;;;;;;;16.40;60.54;98051.09;261358;1104;115490;-67
2021/05/16 09:25:22;;;;;;;3.33;1.55;;;;;;;16.45;61.07;98054.17;261374;1100;115392;-65
2021/05/16 09:30:45;;;;;;;5.80;2.60;;;;;;;16.54;61.58;98066.64;261265;1104;114579;-65
2021/05/16 09:36:17;;;;;;;3.00;1.50;;;;;;;16.66;61.63;98070.77;261451;1100;114746;-66
2021/05/16 09:41:26;;;;;;;6.20;2.13;;;;;;;16.79;62.18;98065.86;261484;1104;114430;-66
2021/05/16 09:47:28;;;;;;;3.70;1.50;;;;;;;16.94;61.96;98057.20;261707;1099;115281;-67
2021/05/16 09:53:05;;;;;;;3.13;1.80;;;;;;;16.91;61.54;98041.39;261506;1102;115862;-64
2021/05/16 09:58:21;;;;;;;;;;;;;;;16.53;61.19;98030.88;261519;1104;114815;-66
2021/05/16 10:03:41;;;;;;;3.90;1.88;;;;;;;16.26;61.98;98033.71;261806;1101;102955;-65
2021/05/16 10:08:49;;;;;;;2.57;1.50;;;;;;;16.13;62.31;98042.16;261636;1100;114185;-66
2021/05/16 10:14:55;;;;;;;2.13;1.10;;;;;;;16.03;62.94;98026.16;261610;1104;116002;-66
2021/05/16 10:25:13;;;;;;;1.88;1.65;;;;;;;16.20;63.58;98029.83;262352;1091;103090;-66
2021/05/16 10:30:35;;;;;;;7.05;5.85;;;;;;;16.30;63.34;98035.08;261811;1101;116398;-65
2021/05/16 10:43:00;;;;;;;;;;;;;;;;;;;;;
2021/05/16 10:48:34;;;;;;;2.50;1.30;;;;;;;16.67;63.21;98024.09;261620;1103;114843;-62
2021/05/16 10:54:30;;;;;;;5.25;3.70;;;;;;;16.67;62.52;98034.00;261842;1098;114699;-66
2021/05/16 10:59:38;;;;;;;3.20;2.57;;;;;;;16.70;62.48;98023.77;261502;1103;114187;-63
2021/05/16 11:04:52;;;;;;;2.83;1.40;;;;;;;16.77;62.19;98022.16;261637;1098;114839;-67
2021/05/16 11:10:29;;;;;;;2.95;0.90;;;;;;;16.87;61.98;98026.59;261595;1103;115554;-68
2021/05/16 11:19:19;;;;;;;2.93;1.93;;;;;;;16.79;61.19;98016.65;261796;1093;103038;-65
2021/05/16 11:24:56;;;;;;;2.20;1.00;;;;;;;16.71;61.00;98025.48;261285;1099;113824;-68
2021/05/16 11:30:11;;;;;;;3.80;0.90;;;;;;;16.66;60.83;98026.95;261789;1099;115097;-68
2021/05/16 11:36:29;;;;;;;2.53;0.95;;;;;;;16.62;60.85;98014.84;261804;1099;115315;-68
2021/05/16 11:41:46;;;;;;;1.50;1.00;;;;;;;16.62;61.21;98021.05;261686;1101;114744;-67
2021/05/16 11:47:12;;;;;;;1.05;0.90;;;;;;;16.65;61.13;98014.53;261640;1099;115257;-64
2021/05/16 11:52:31;;;;;;;1.75;0.80;;;;;;;16.70;61.12;98010.34;261604;1099;114508;-68
2021/05/16 11:57:47;;;;;;;2.90;0.83;;;;;;;16.69;60.70;98008.67;261292;1101;115250;-69
2021/05/16 12:08:30;;;;;;;2.28;0.98;;;;;;;16.60;60.12;98004.23;262507;1090;103048;-67
2021/05/16 12:14:07;;;;;;;1.38;1.00;;;;;;;16.50;59.91;98009.71;261605;1102;114717;-67
2021/05/16 12:20:02;;;;;;;1.30;0.80;;;;;;;16.44;59.97;98004.13;261638;1096;115115;-69
2021/05/16 12:26:08;;;;;;;1.53;0.80;;;;;;;16.36;59.96;98004.08;262297;1102;114288;-66
2021/05/16 12:32:32;;;;;;;2.73;0.93;;;;;;;16.28;60.04;98012.94;262248;1099;115323;-69
2021/05/16 12:39:18;;;;;;;1.43;0.90;;;;;;;16.18;60.18;97996.08;262256;1098;115045;-66
2021/05/16 12:54:48;;;;;;;2.18;1.08;;;;;;;16.35;60.89;97987.13;263037;1089;103624;-69
2021/05/16 13:01:23;;;;;;;3.40;1.00;;;;;;;16.40;61.15;97989.34;262746;1100;114426;-67
2021/05/16 13:08:02;;;;;;;2.70;1.20;;;;;;;16.37;60.77;97990.52;262467;1087;115320;-67
2021/05/16 13:13:47;;;;;;;3.58;1.35;;;;;;;16.27;60.84;98004.04;261899;1102;115029;-67
2021/05/16 14:08:50;;;;;;;4.10;1.40;;;;;;;16.01;62.81;98016.58;262781;1091;102851;-68
2021/05/16 14:14:40;;;;;;;3.23;1.35;;;;;;;15.98;62.50;98009.66;261947;1098;114481;-68
2021/05/16 14:32:13;;;;;;;1.20;0.88;;;;;;;16.01;62.15;98001.30;262691;1094;102965;-69
2021/05/16 14:38:06;;;;;;;1.20;1.00;;;;;;;16.01;61.00;98001.30;261917;1100;113570;-67
2021/05/16 14:49:01;;;;;;;2.20;1.18;;;;;;;15.97;60.85;97999.09;262322;1099;103074;-66
2021/05/16 14:54:35;;;;;;;2.38;1.30;;;;;;;15.97;60.94;97994.57;261874;1104;114048;-65
2021/05/16 15:05:00;;;;;;;3.30;2.35;;;;;;;16.07;60.99;97989.95;262150;1091;103107;-66
2021/05/16 15:10:18;;;;;;;2.75;1.70;;;;;;;16.15;60.89;97986.48;261622;1101;115691;-65
2021/05/16 15:15:26;;;;;;;6.65;2.18;;;;;;;16.19;60.87;97993.22;261449;1100;115290;-65
2021/05/16 15:20:39;;;;;;;2.37;1.70;;;;;;;16.17;60.71;97979.13;261497;1099;115205;-66
2021/05/16 15:25:56;;;;;;;3.68;2.00;;;;;;;16.15;60.69;97981.11;261360;1099;114368;-67
2021/05/16 15:31:10;;;;;;;5.65;2.15;;;;;;;16.12;61.29;97975.22;261668;1104;115111;-66
2021/05/16 15:36:19;;;;;;;3.05;2.10;;;;;;;16.12;60.71;97983.27;261667;1099;112955;-66
2021/05/16 15:41:30;;;;;;;3.40;2.10;;;;;;;16.16;60.75;97990.84;261513;1102;114913;-67
2021/05/16 15:46:45;;;;;;;3.43;1.93;;;;;;;16.21;60.86;97985.86;261493;1104;116042;-66
2021/05/16 15:52:00;;;;;;;4.50;2.07;;;;;;;16.23;60.93;97972.27;261488;1104;114583;-67
2021/05/16 15:57:07;;;;;;;3.20;2.20;;;;;;;16.22;60.87;97962.54;261612;1100;114545;-65
2021/05/16 16:02:19;;;;;;;7.17;1.97;;;;;;;16.23;60.59;97965.05;261521;1101;115823;-66
2021/05/16 16:07:36;;;;;;;6.50;2.50;;;;;;;16.28;60.53;97946.65;261781;1099;115016;-67
2021/05/16 16:12:59;;;;;;;2.48;1.90;;;;;;;16.40;60.51;97954.42;261727;1104;114137;-68
2021/05/16 16:18:27;;;;;;;3.63;2.13;;;;;;;16.45;60.35;97946.75;261301;1099;114876;-67
2021/05/16 16:23:44;;;;;;;2.80;1.93;;;;;;;16.41;60.18;97954.28;261514;1101;114179;-65
2021/05/16 16:47:09;;;;;;;4.40;2.40;;;;;;;16.36;60.53;97937.79;262695;1093;102970;-67
2021/05/16 16:52:38;;;;;;;4.48;2.60;;;;;;;16.35;60.42;97944.17;261966;1101;114614;-67
2021/05/16 16:58:09;;;;;;;6.30;3.40;;;;;;;16.29;60.13;97934.89;262091;1099;114614;-67
2021/05/16 17:03:14;;;;;;;4.20;2.83;;;;;;;16.28;60.36;97932.38;261822;1089;114769;-67
2021/05/16 17:08:34;;;;;;;7.60;2.98;;;;;;;16.28;60.18;97935.91;261626;1104;114786;-67
2021/05/16 17:13:46;;;;;;;5.65;3.00;;;;;;;16.29;60.48;97934.06;262116;1102;115371;-65
2021/05/16 17:19:02;;;;;;;4.60;2.93;;;;;;;16.30;60.27;97938.42;261216;1104;115943;-67
2021/05/16 17:24:43;;;;;;;6.25;3.35;;;;;;;16.28;60.23;97946.65;261390;1100;114498;-64
2021/05/16 17:29:59;;;;;;;5.43;2.88;;;;;;;16.33;60.52;97938.11;261857;1104;114476;-68
2021/05/16 17:43:01;;;;;;;4.83;2.75;;;;;;;16.41;60.61;97948.91;262668;1092;102453;-68
2021/05/16 17:49:12;;;;;;;5.60;2.65;;;;;;;16.33;60.47;97951.53;262027;1101;115788;-69
2021/05/16 18:01:55;;;;;;;3.95;2.33;;;;;;;16.09;60.43;97954.89;262157;1094;103487;-66
2021/05/16 18:07:21;;;;;;;4.73;2.50;;;;;;;16.02;60.85;97954.67;261616;1092;114507;-67
2021/05/16 18:28:41;;;;;;;6.05;3.00;;;;;;;15.81;61.81;97951.50;262059;1091;103110;-66
2021/05/16 18:34:16;;;;;;;5.30;2.83;;;;;;;15.79;61.74;97948.98;261642;1103;115452;-67
2021/05/16 18:40:02;;;;;;;7.15;2.93;;;;;;;15.82;62.09;97947.80;261677;1100;114471;-66
2021/05/16 18:46:15;;;;;;;3.97;3.10;;;;;;;15.84;62.36;97951.19;261794;1103;114662;-66
2021/05/16 18:54:54;;;;;;;4.55;2.80;;;;;;;15.73;62.19;97956.80;262175;1091;101865;-68
2021/05/16 19:00:17;;;;;;;5.55;3.18;;;;;;;15.65;62.74;97967.41;260985;1103;116155;-67
2021/05/16 19:05:33;;;;;;;5.05;2.83;;;;;;;15.63;63.06;97959.53;261575;1099;114409;-66
2021/05/16 19:10:47;;;;;;;4.65;2.98;;;;;;;15.61;63.04;97962.34;260928;1104;114305;-66
2021/05/16 19:15:58;;;;;;;7.20;3.47;;;;;;;15.55;63.14;97967.48;261215;1098;114427;-69
2021/05/16 19:21:42;;;;;;;4.43;3.25;;;;;;;15.44;63.00;97959.67;261718;1104;114801;-65
2021/05/16 19:26:50;;;;;;;7.37;3.40;;;;;;;15.31;63.93;97960.88;260935;1104;114438;-65
2021/05/16 19:31:57;;;;;;;5.35;3.53;;;;;;;15.19;63.30;97961.27;261205;1102;114605;-65
2021/05/16 19:37:08;;;;;;;9.50;5.37;;;;;;;15.03;63.21;97973.47;261156;1103;117693;-65
2021/05/16 19:42:17;;;;;;;8.53;3.58;;;;;;;14.98;63.80;97980.25;261990;1098;114923;-67
2021/05/16 19:47:24;;;;;;;7.58;3.83;;;;;;;14.89;63.58;97993.56;260986;1100;115110;-66
2021/05/16 19:52:35;;;;;;;7.48;4.33;;;;;;;14.80;63.56;98001.64;261180;1098;115528;-64
2021/05/16 19:57:44;;;;;;;7.60;4.20;;;;;;;14.69;64.17;98013.38;261287;1102;114298;-65
2021/05/16 20:03:01;;;;;;;5.80;4.53;;;;;;;14.61;64.32;98023.99;261344;1100;114563;-66
2021/05/16 20:08:40;;;;;;;10.37;6.17;;;;;;;14.50;64.34;98024.11;261688;1100;114820;-66
2021/05/16 20:14:10;;;;;;;5.70;4.10;;;;;;;14.41;64.70;98018.65;261032;1103;115668;-65
2021/05/16 20:19:23;;;;;;;5.45;3.93;;;;;;;14.36;64.25;98020.90;261601;1098;114684;-65
2021/05/16 20:24:54;;;;;;;5.47;4.37;;;;;;;14.30;64.46;98010.80;261214;1098;116064;-66
2021/05/16 20:30:12;;;;;;;7.63;4.83;;;;;;;14.26;64.60;98011.20;261184;1104;116033;-63
2021/05/16 20:35:36;;;;;;;6.95;4.50;;;;;;;14.16;64.79;98005.86;261939;1102;115014;-66
2021/05/16 20:40:50;;;;;;;6.58;4.70;;;;;;;14.06;64.82;98005.91;261190;1098;115314;-65
2021/05/16 20:46:13;;;;;;;6.60;4.60;;;;;;;13.97;65.22;98020.13;261589;1099;114281;-66
2021/05/16 20:51:20;;;;;;;8.57;4.90;;;;;;;13.86;64.80;98025.63;261637;1102;116439;-65
2021/05/16 20:56:25;;;;;;;8.77;4.53;;;;;;;13.80;64.63;98015.48;261729;1100;115874;-65
2021/05/16 21:01:37;;;;;;;6.77;5.10;;;;;;;13.78;65.52;98028.14;261295;1104;114613;-70
2021/05/16 21:06:44;;;;;;;8.60;5.10;;;;;;;13.73;65.10;98021.39;261615;1100;115860;-64
2021/05/16 21:11:56;;;;;;;8.93;5.70;;;;;;;13.67;65.01;98015.75;261512;1099;116121;-64
2021/05/16 21:17:14;;;;;;;10.43;6.53;;;;;;;13.57;64.99;98021.08;261272;1103;114490;-63
2021/05/16 21:22:22;;;;;;;9.67;6.27;;;;;;;13.46;65.69;98030.08;261812;1098;115149;-62
2021/05/16 21:27:32;;;;;;;12.63;7.00;;;;;;;13.36;65.29;98033.72;261119;1101;114318;-65
2021/05/16 21:32:46;;;;;;;9.98;6.53;;;;;;;13.32;65.99;98033.15;261031;1104;114704;-65
2021/05/16 21:37:57;;;;;;;11.25;6.65;;;;;;;13.31;66.40;98028.77;261499;1099;114105;-66
2021/05/16 21:43:15;;;;;;;11.30;6.65;;;;;;;13.31;65.42;98033.27;261332;1099;114708;-70
2021/05/16 21:48:25;;;;;;;11.90;7.20;;;;;;;13.26;65.64;98031.02;261010;1100;114659;-66
2021/05/16 21:53:53;;;;;;;15.63;6.73;;;;;;;13.16;65.86;98024.78;261049;1100;115435;-67
2021/05/16 21:59:06;;;;;;;14.10;6.25;;;;;;;13.07;65.52;98030.92;261290;1103;114700;-66
2021/05/16 22:04:12;;;;;;;8.87;6.27;;;;;;;12.98;65.56;98022.76;261069;1099;115244;-65
2021/05/16 22:09:25;;;;;;;9.70;5.87;;;;;;;12.94;66.13;98023.14;261292;1100;115379;-65
2021/05/16 22:14:38;;;;;;;8.93;6.53;;;;;;;12.92;65.98;98012.61;261352;1099;116632;-66
2021/05/16 22:20:04;;;;;;;13.87;6.73;;;;;;;12.89;65.90;98012.03;261377;1102;115595;-63
2021/05/16 22:25:14;;;;;;;16.10;6.93;;;;;;;12.81;65.74;98030.56;261460;1104;114288;-64
2021/05/16 22:30:26;;;;;;;11.40;7.50;;;;;;;12.69;65.86;98025.30;260972;1104;115084;-65
2021/05/16 22:35:42;;;;;;;;;;;;;;;12.61;66.31;98034.97;260990;1102;114887;-68
2021/05/16 22:40:47;;;;;;;12.20;6.30;;;;;;;12.50;66.23;98030.56;261048;1098;103011;-66
2021/05/16 22:45:59;;;;;;;9.00;6.13;;;;;;;12.41;65.67;98032.18;260948;1101;115385;-66
2021/05/16 22:51:07;;;;;;;12.85;6.25;;;;;;;12.38;65.63;98026.27;261156;1103;116149;-67
2021/05/16 22:56:19;;;;;;;11.40;6.80;;;;;;;12.34;66.65;98035.51;261188;1099;114937;-65
2021/05/16 23:01:31;;;;;;;10.73;6.33;;;;;;;12.32;66.48;98030.29;261068;1104;115542;-65
2021/05/16 23:06:50;;;;;;;9.90;6.30;;;;;;;12.30;66.28;98022.43;261387;1098;118779;-66
2021/05/16 23:11:57;;;;;;;11.77;7.10;;;;;;;12.26;66.49;98018.34;260934;1099;114869;-66
2021/05/16 23:17:07;;;;;;;9.50;6.88;;;;;;;12.22;66.48;98018.71;261433;1104;114453;-64
2021/05/16 23:22:27;;;;;;;13.47;7.50;;;;;;;12.13;66.29;98014.18;261422;1098;115294;-65
2021/05/16 23:27:34;;;;;;;9.13;6.13;;;;;;;12.05;66.21;98012.98;261380;1102;115521;-66
2021/05/16 23:32:55;;;;;;;9.50;6.47;;;;;;;12.01;66.72;98014.22;261058;1101;114776;-65
2021/05/16 23:38:04;;;;;;;9.83;7.17;;;;;;;11.97;67.00;98007.46;260920;1103;115323;-65
2021/05/16 23:43:15;;;;;;;10.03;6.63;;;;;;;11.94;66.19;97999.72;261257;1099;115414;-65
2021/05/16 23:48:30;;;;;;;10.57;7.20;;;;;;;11.89;67.03;97993.94;261216;1103;114643;-65
2021/05/16 23:53:45;;;;;;;9.53;6.60;;;;;;;11.81;66.20;97985.70;261044;1104;114771;-66
2021/05/16 23:58:56;;;;;;;9.80;6.13;;;;;;;11.73;66.74;97978.34;261429;1100;114715;-65
